sensor_id;sensor_type;location;lat;lon;timestamp;P1;durP1;ratioP1;P2;durP2;ratioP2
1715;SDS011;855;48.824;9.220;2023-04-25T00:01:32;2.33;;;1.33;;
1715;SDS011;855;48.824;9.220;2023-04-25T00:04:01;2.67;;;1.97;;
1715;SDS011;855;48.824;9.220;2023-04-25T00:06:29;1.60;;;1.30;;
1715;SDS011;855;48.824;9.220;2023-04-25T00:08:57;2.20;;;1.47;;
1715;SDS011;855;48.824;9.220;2023-04-25T00:11:24;2.13;;;1.63;;
1715;SDS011;855;48.824;9.220;2023-04-25T00:13:50;2.83;;;1.57;;
1715;SDS011;855;48.824;9.220;2023-04-25T00:16:17;4.43;;;1.40;;
1715;SDS011;855;48.824;9.220;2023-04-25T00:18:44;2.50;;;1.00;;
1715;SDS011;855;48.824;9.220;2023-04-25T00:21:16;3.07;;;1.93;;
1715;SDS011;855;48.824;9.220;2023-04-25T00:23:44;3.33;;;1.27;;
1715;SDS011;855;48.824;9.220;2023-04-25T00:26:11;15.23;;;2.03;;
1715;SDS011;855;48.824;9.220;2023-04-25T00:28:39;1.27;;;1.20;;
1715;SDS011;855;48.824;9.220;2023-04-25T00:31:06;1.50;;;1.20;;
1715;SDS011;855;48.824;9.220;2023-04-25T00:33:33;1.67;;;1.20;;
1715;SDS011;855;48.824;9.220;2023-04-25T00:36:00;2.17;;;1.77;;
1715;SDS011;855;48.824;9.220;2023-04-25T00:38:26;3.90;;;1.33;;
1715;SDS011;855;48.824;9.220;2023-04-25T00:40:55;3.17;;;1.23;;
1715;SDS011;855;48.824;9.220;2023-04-25T00:43:22;2.97;;;1.50;;
1715;SDS011;855;48.824;9.220;2023-04-25T00:45:51;3.40;;;1.40;;
1715;SDS011;855;48.824;9.220;2023-04-25T00:48:19;2.07;;;1.47;;
1715;SDS011;855;48.824;9.220;2023-04-25T00:50:48;3.43;;;1.97;;
1715;SDS011;855;48.824;9.220;2023-04-25T00:53:19;2.00;;;1.60;;
1715;SDS011;855;48.824;9.220;2023-04-25T00:55:45;1.60;;;1.50;;
1715;SDS011;855;48.824;9.220;2023-04-25T00:58:14;2.07;;;1.47;;
1715;SDS011;855;48.824;9.220;2023-04-25T01:00:41;2.30;;;1.30;;
1715;SDS011;855;48.824;9.220;2023-04-25T01:03:08;3.10;;;1.70;;
1715;SDS011;855;48.824;9.220;2023-04-25T01:05:36;2.17;;;1.50;;
1715;SDS011;855;48.824;9.220;2023-04-25T01:08:02;4.90;;;1.43;;
1715;SDS011;855;48.824;9.220;2023-04-25T01:10:30;1.90;;;1.53;;
1715;SDS011;855;48.824;9.220;2023-04-25T01:12:56;1.20;;;1.10;;
1715;SDS011;855;48.824;9.220;2023-04-25T01:15:25;2.10;;;1.43;;
1715;SDS011;855;48.824;9.220;2023-04-25T01:17:51;2.67;;;1.87;;
1715;SDS011;855;48.824;9.220;2023-04-25T01:20:20;5.90;;;1.43;;
1715;SDS011;855;48.824;9.220;2023-04-25T01:22:49;1.37;;;1.30;;
1715;SDS011;855;48.824;9.220;2023-04-25T01:25:16;4.20;;;1.27;;
1715;SDS011;855;48.824;9.220;2023-04-25T01:27:44;4.33;;;1.97;;
1715;SDS011;855;48.824;9.220;2023-04-25T01:30:12;3.07;;;1.60;;
1715;SDS011;855;48.824;9.220;2023-04-25T01:32:39;4.13;;;1.63;;
1715;SDS011;855;48.824;9.220;2023-04-25T01:35:08;2.03;;;1.53;;
1715;SDS011;855;48.824;9.220;2023-04-25T01:37:37;3.00;;;1.80;;
1715;SDS011;855;48.824;9.220;2023-04-25T01:40:06;2.80;;;1.70;;
1715;SDS011;855;48.824;9.220;2023-04-25T01:42:34;9.33;;;1.73;;
1715;SDS011;855;48.824;9.220;2023-04-25T01:45:02;3.03;;;1.63;;
1715;SDS011;855;48.824;9.220;2023-04-25T01:47:30;2.80;;;1.83;;
1715;SDS011;855;48.824;9.220;2023-04-25T01:49:56;2.13;;;1.60;;
1715;SDS011;855;48.824;9.220;2023-04-25T01:52:23;2.10;;;1.27;;
1715;SDS011;855;48.824;9.220;2023-04-25T01:54:50;2.20;;;2.00;;
1715;SDS011;855;48.824;9.220;2023-04-25T01:57:20;2.10;;;1.40;;
1715;SDS011;855;48.824;9.220;2023-04-25T01:59:47;2.23;;;1.50;;
1715;SDS011;855;48.824;9.220;2023-04-25T02:02:14;2.83;;;1.73;;
1715;SDS011;855;48.824;9.220;2023-04-25T02:04:41;5.20;;;1.30;;
1715;SDS011;855;48.824;9.220;2023-04-25T02:07:07;5.17;;;1.80;;
1715;SDS011;855;48.824;9.220;2023-04-25T02:09:34;1.83;;;1.67;;
1715;SDS011;855;48.824;9.220;2023-04-25T02:12:01;3.13;;;1.80;;
1715;SDS011;855;48.824;9.220;2023-04-25T02:14:29;2.73;;;1.50;;
1715;SDS011;855;48.824;9.220;2023-04-25T02:16:56;3.93;;;1.93;;
1715;SDS011;855;48.824;9.220;2023-04-25T02:19:23;4.40;;;1.80;;
1715;SDS011;855;48.824;9.220;2023-04-25T02:21:50;2.90;;;1.60;;
1715;SDS011;855;48.824;9.220;2023-04-25T02:24:17;3.13;;;1.63;;
1715;SDS011;855;48.824;9.220;2023-04-25T02:26:43;3.57;;;2.17;;
1715;SDS011;855;48.824;9.220;2023-04-25T02:29:11;2.93;;;1.57;;
1715;SDS011;855;48.824;9.220;2023-04-25T02:31:41;4.17;;;2.43;;
1715;SDS011;855;48.824;9.220;2023-04-25T02:34:08;1.77;;;1.40;;
1715;SDS011;855;48.824;9.220;2023-04-25T02:36:35;2.17;;;1.53;;
1715;SDS011;855;48.824;9.220;2023-04-25T02:39:02;3.43;;;1.50;;
1715;SDS011;855;48.824;9.220;2023-04-25T02:41:28;5.57;;;1.93;;
1715;SDS011;855;48.824;9.220;2023-04-25T02:43:55;5.10;;;3.73;;
1715;SDS011;855;48.824;9.220;2023-04-25T02:46:22;3.10;;;1.60;;
1715;SDS011;855;48.824;9.220;2023-04-25T02:48:50;2.07;;;1.80;;
1715;SDS011;855;48.824;9.220;2023-04-25T02:51:17;1.70;;;1.70;;
1715;SDS011;855;48.824;9.220;2023-04-25T02:53:44;1.70;;;1.40;;
1715;SDS011;855;48.824;9.220;2023-04-25T02:56:12;4.60;;;1.60;;
1715;SDS011;855;48.824;9.220;2023-04-25T02:58:38;5.23;;;1.70;;
1715;SDS011;855;48.824;9.220;2023-04-25T03:01:05;2.30;;;1.63;;
1715;SDS011;855;48.824;9.220;2023-04-25T03:03:32;2.07;;;1.90;;
1715;SDS011;855;48.824;9.220;2023-04-25T03:06:00;2.73;;;1.73;;
1715;SDS011;855;48.824;9.220;2023-04-25T03:08:27;2.30;;;1.73;;
1715;SDS011;855;48.824;9.220;2023-04-25T03:10:57;1.70;;;1.53;;
1715;SDS011;855;48.824;9.220;2023-04-25T03:13:24;3.70;;;2.27;;
1715;SDS011;855;48.824;9.220;2023-04-25T03:15:52;3.13;;;1.90;;
1715;SDS011;855;48.824;9.220;2023-04-25T03:18:19;3.73;;;1.73;;
1715;SDS011;855;48.824;9.220;2023-04-25T03:20:46;8.03;;;2.00;;
1715;SDS011;855;48.824;9.220;2023-04-25T03:23:14;3.07;;;1.57;;
1715;SDS011;855;48.824;9.220;2023-04-25T03:25:41;2.37;;;1.67;;
1715;SDS011;855;48.824;9.220;2023-04-25T03:28:07;8.40;;;1.87;;
1715;SDS011;855;48.824;9.220;2023-04-25T03:30:34;2.10;;;1.63;;
1715;SDS011;855;48.824;9.220;2023-04-25T03:33:01;3.53;;;1.80;;
1715;SDS011;855;48.824;9.220;2023-04-25T03:35:28;4.60;;;1.90;;
1715;SDS011;855;48.824;9.220;2023-04-25T03:37:55;4.57;;;2.30;;
1715;SDS011;855;48.824;9.220;2023-04-25T03:40:23;8.97;;;2.37;;
1715;SDS011;855;48.824;9.220;2023-04-25T03:42:50;2.20;;;2.00;;
1715;SDS011;855;48.824;9.220;2023-04-25T03:45:17;4.60;;;1.57;;
1715;SDS011;855;48.824;9.220;2023-04-25T03:47:44;1.70;;;1.60;;
1715;SDS011;855;48.824;9.220;2023-04-25T03:50:10;4.63;;;2.40;;
1715;SDS011;855;48.824;9.220;2023-04-25T03:52:37;2.30;;;2.10;;
1715;SDS011;855;48.824;9.220;2023-04-25T03:55:04;3.90;;;2.40;;
1715;SDS011;855;48.824;9.220;2023-04-25T03:57:33;3.60;;;2.80;;
1715;SDS011;855;48.824;9.220;2023-04-25T04:00:00;3.43;;;2.17;;
1715;SDS011;855;48.824;9.220;2023-04-25T04:02:28;3.10;;;1.97;;
1715;SDS011;855;48.824;9.220;2023-04-25T04:04:55;3.57;;;1.93;;
1715;SDS011;855;48.824;9.220;2023-04-25T04:07:22;2.27;;;1.90;;
1715;SDS011;855;48.824;9.220;2023-04-25T04:09:48;5.30;;;2.53;;
1715;SDS011;855;48.824;9.220;2023-04-25T04:12:15;4.70;;;2.00;;
1715;SDS011;855;48.824;9.220;2023-04-25T04:14:43;3.10;;;1.70;;
1715;SDS011;855;48.824;9.220;2023-04-25T04:17:10;3.27;;;2.20;;
1715;SDS011;855;48.824;9.220;2023-04-25T04:19:37;3.28;;;2.00;;
1715;SDS011;855;48.824;9.220;2023-04-25T04:22:04;4.00;;;2.40;;
1715;SDS011;855;48.824;9.220;2023-04-25T04:24:30;9.70;;;2.20;;
1715;SDS011;855;48.824;9.220;2023-04-25T04:26:57;3.00;;;2.03;;
1715;SDS011;855;48.824;9.220;2023-04-25T04:29:24;3.90;;;2.63;;
1715;SDS011;855;48.824;9.220;2023-04-25T04:31:53;4.47;;;2.83;;
1715;SDS011;855;48.824;9.220;2023-04-25T04:34:20;3.20;;;2.10;;
1715;SDS011;855;48.824;9.220;2023-04-25T04:36:49;3.67;;;2.10;;
1715;SDS011;855;48.824;9.220;2023-04-25T04:39:16;2.60;;;2.07;;
1715;SDS011;855;48.824;9.220;2023-04-25T04:41:42;8.37;;;2.50;;
1715;SDS011;855;48.824;9.220;2023-04-25T04:44:10;2.70;;;2.37;;
1715;SDS011;855;48.824;9.220;2023-04-25T04:46:37;3.37;;;2.20;;
1715;SDS011;855;48.824;9.220;2023-04-25T04:49:08;5.87;;;2.57;;
1715;SDS011;855;48.824;9.220;2023-04-25T04:51:35;5.97;;;2.77;;
1715;SDS011;855;48.824;9.220;2023-04-25T04:54:02;2.97;;;2.60;;
1715;SDS011;855;48.824;9.220;2023-04-25T04:56:30;5.13;;;2.90;;
1715;SDS011;855;48.824;9.220;2023-04-25T04:58:57;3.63;;;2.13;;
1715;SDS011;855;48.824;9.220;2023-04-25T05:01:24;8.80;;;3.10;;
1715;SDS011;855;48.824;9.220;2023-04-25T05:03:52;7.10;;;2.50;;
1715;SDS011;855;48.824;9.220;2023-04-25T05:06:20;4.93;;;2.57;;
1715;SDS011;855;48.824;9.220;2023-04-25T05:08:47;4.53;;;2.60;;
1715;SDS011;855;48.824;9.220;2023-04-25T05:11:14;2.93;;;2.70;;
1715;SDS011;855;48.824;9.220;2023-04-25T05:13:40;4.17;;;2.43;;
1715;SDS011;855;48.824;9.220;2023-04-25T05:16:07;7.13;;;2.40;;
1715;SDS011;855;48.824;9.220;2023-04-25T05:18:34;7.50;;;2.80;;
1715;SDS011;855;48.824;9.220;2023-04-25T05:21:01;4.07;;;3.00;;
1715;SDS011;855;48.824;9.220;2023-04-25T05:23:30;5.00;;;2.70;;
1715;SDS011;855;48.824;9.220;2023-04-25T05:25:57;5.13;;;2.50;;
1715;SDS011;855;48.824;9.220;2023-04-25T05:28:23;3.40;;;2.93;;
1715;SDS011;855;48.824;9.220;2023-04-25T05:30:50;6.90;;;2.83;;
1715;SDS011;855;48.824;9.220;2023-04-25T05:33:17;4.50;;;2.83;;
1715;SDS011;855;48.824;9.220;2023-04-25T05:35:45;5.23;;;2.60;;
1715;SDS011;855;48.824;9.220;2023-04-25T05:38:12;5.27;;;3.50;;
1715;SDS011;855;48.824;9.220;2023-04-25T05:40:40;5.50;;;2.80;;
1715;SDS011;855;48.824;9.220;2023-04-25T05:43:07;7.53;;;3.20;;
1715;SDS011;855;48.824;9.220;2023-04-25T05:45:34;6.17;;;3.20;;
1715;SDS011;855;48.824;9.220;2023-04-25T05:48:01;5.50;;;3.00;;
1715;SDS011;855;48.824;9.220;2023-04-25T05:50:28;3.30;;;2.77;;
1715;SDS011;855;48.824;9.220;2023-04-25T05:52:55;5.00;;;3.07;;
1715;SDS011;855;48.824;9.220;2023-04-25T05:55:21;5.93;;;2.83;;
1715;SDS011;855;48.824;9.220;2023-04-25T05:57:50;4.60;;;3.10;;
1715;SDS011;855;48.824;9.220;2023-04-25T06:00:16;5.57;;;3.10;;
1715;SDS011;855;48.824;9.220;2023-04-25T06:02:43;3.27;;;2.90;;
1715;SDS011;855;48.824;9.220;2023-04-25T06:05:10;5.23;;;2.93;;
1715;SDS011;855;48.824;9.220;2023-04-25T06:07:37;5.13;;;3.30;;
1715;SDS011;855;48.824;9.220;2023-04-25T06:10:04;5.57;;;2.87;;
1715;SDS011;855;48.824;9.220;2023-04-25T06:12:32;5.07;;;3.03;;
1715;SDS011;855;48.824;9.220;2023-04-25T06:15:01;5.07;;;3.00;;
1715;SDS011;855;48.824;9.220;2023-04-25T06:17:27;6.53;;;3.40;;
1715;SDS011;855;48.824;9.220;2023-04-25T06:19:54;5.73;;;2.63;;
1715;SDS011;855;48.824;9.220;2023-04-25T06:22:21;6.07;;;2.77;;
1715;SDS011;855;48.824;9.220;2023-04-25T06:24:48;6.00;;;2.93;;
1715;SDS011;855;48.824;9.220;2023-04-25T06:27:14;4.30;;;2.90;;
1715;SDS011;855;48.824;9.220;2023-04-25T06:29:41;3.77;;;2.80;;
1715;SDS011;855;48.824;9.220;2023-04-25T06:32:09;5.53;;;2.57;;
1715;SDS011;855;48.824;9.220;2023-04-25T06:34:36;5.80;;;3.13;;
1715;SDS011;855;48.824;9.220;2023-04-25T06:37:03;3.30;;;2.50;;
1715;SDS011;855;48.824;9.220;2023-04-25T06:39:30;7.70;;;3.27;;
1715;SDS011;855;48.824;9.220;2023-04-25T06:41:57;4.03;;;2.73;;
1715;SDS011;855;48.824;9.220;2023-04-25T06:44:24;4.37;;;2.70;;
1715;SDS011;855;48.824;9.220;2023-04-25T06:46:51;5.73;;;3.13;;
1715;SDS011;855;48.824;9.220;2023-04-25T06:49:19;5.17;;;2.40;;
1715;SDS011;855;48.824;9.220;2023-04-25T06:51:46;5.13;;;2.60;;
1715;SDS011;855;48.824;9.220;2023-04-25T06:54:13;4.97;;;2.70;;
1715;SDS011;855;48.824;9.220;2023-04-25T06:56:39;6.40;;;3.50;;
1715;SDS011;855;48.824;9.220;2023-04-25T06:59:06;6.40;;;3.33;;
1715;SDS011;855;48.824;9.220;2023-04-25T07:01:34;3.27;;;2.50;;
1715;SDS011;855;48.824;9.220;2023-04-25T07:04:01;3.60;;;2.77;;
1715;SDS011;855;48.824;9.220;2023-04-25T07:06:29;3.67;;;2.50;;
1715;SDS011;855;48.824;9.220;2023-04-25T07:08:56;4.87;;;3.13;;
1715;SDS011;855;48.824;9.220;2023-04-25T07:11:23;8.10;;;3.10;;
1715;SDS011;855;48.824;9.220;2023-04-25T07:13:50;4.70;;;3.00;;
1715;SDS011;855;48.824;9.220;2023-04-25T07:16:16;6.10;;;3.33;;
1715;SDS011;855;48.824;9.220;2023-04-25T07:18:43;3.50;;;2.93;;
1715;SDS011;855;48.824;9.220;2023-04-25T07:21:10;9.90;;;3.67;;
1715;SDS011;855;48.824;9.220;2023-04-25T07:23:38;6.50;;;3.30;;
1715;SDS011;855;48.824;9.220;2023-04-25T07:26:06;8.80;;;3.83;;
1715;SDS011;855;48.824;9.220;2023-04-25T07:28:33;6.47;;;3.00;;
1715;SDS011;855;48.824;9.220;2023-04-25T07:30:59;6.53;;;3.67;;
1715;SDS011;855;48.824;9.220;2023-04-25T07:33:27;4.50;;;2.70;;
1715;SDS011;855;48.824;9.220;2023-04-25T07:35:54;6.60;;;2.63;;
1715;SDS011;855;48.824;9.220;2023-04-25T07:38:21;8.13;;;3.03;;
1715;SDS011;855;48.824;9.220;2023-04-25T07:40:49;8.43;;;3.10;;
1715;SDS011;855;48.824;9.220;2023-04-25T07:43:16;5.90;;;3.80;;
1715;SDS011;855;48.824;9.220;2023-04-25T07:45:43;5.27;;;3.50;;
1715;SDS011;855;48.824;9.220;2023-04-25T07:48:10;6.77;;;3.90;;
1715;SDS011;855;48.824;9.220;2023-04-25T07:50:37;5.80;;;3.13;;
1715;SDS011;855;48.824;9.220;2023-04-25T07:53:04;9.27;;;4.17;;
1715;SDS011;855;48.824;9.220;2023-04-25T07:55:31;6.90;;;4.17;;
1715;SDS011;855;48.824;9.220;2023-04-25T07:57:59;10.53;;;3.27;;
1715;SDS011;855;48.824;9.220;2023-04-25T08:00:26;7.27;;;3.97;;
1715;SDS011;855;48.824;9.220;2023-04-25T08:02:53;8.17;;;4.20;;
1715;SDS011;855;48.824;9.220;2023-04-25T08:05:20;17.30;;;4.40;;
1715;SDS011;855;48.824;9.220;2023-04-25T08:07:47;6.57;;;3.40;;
1715;SDS011;855;48.824;9.220;2023-04-25T08:10:14;6.33;;;4.00;;
1715;SDS011;855;48.824;9.220;2023-04-25T08:12:40;8.33;;;4.07;;
1715;SDS011;855;48.824;9.220;2023-04-25T08:15:10;8.47;;;4.30;;
1715;SDS011;855;48.824;9.220;2023-04-25T08:17:38;6.83;;;4.23;;
1715;SDS011;855;48.824;9.220;2023-04-25T08:20:06;4.80;;;3.70;;
1715;SDS011;855;48.824;9.220;2023-04-25T08:22:33;7.93;;;3.50;;
1715;SDS011;855;48.824;9.220;2023-04-25T08:25:00;8.93;;;4.30;;
1715;SDS011;855;48.824;9.220;2023-04-25T08:27:27;8.77;;;3.60;;
1715;SDS011;855;48.824;9.220;2023-04-25T08:29:54;7.00;;;3.60;;
1715;SDS011;855;48.824;9.220;2023-04-25T08:32:22;7.50;;;3.60;;
1715;SDS011;855;48.824;9.220;2023-04-25T08:34:49;7.73;;;3.63;;
1715;SDS011;855;48.824;9.220;2023-04-25T08:37:19;14.10;;;5.13;;
1715;SDS011;855;48.824;9.220;2023-04-25T08:39:45;8.97;;;3.73;;
1715;SDS011;855;48.824;9.220;2023-04-25T08:42:13;6.23;;;4.20;;
1715;SDS011;855;48.824;9.220;2023-04-25T08:44:41;6.63;;;3.33;;
1715;SDS011;855;48.824;9.220;2023-04-25T08:47:08;11.73;;;3.50;;
1715;SDS011;855;48.824;9.220;2023-04-25T08:49:36;8.73;;;4.43;;
1715;SDS011;855;48.824;9.220;2023-04-25T08:52:08;13.37;;;3.87;;
1715;SDS011;855;48.824;9.220;2023-04-25T08:54:36;8.10;;;4.00;;
1715;SDS011;855;48.824;9.220;2023-04-25T08:57:08;7.37;;;4.53;;
1715;SDS011;855;48.824;9.220;2023-04-25T08:59:35;5.07;;;3.17;;
1715;SDS011;855;48.824;9.220;2023-04-25T09:02:04;6.80;;;4.30;;
1715;SDS011;855;48.824;9.220;2023-04-25T09:04:31;6.27;;;3.50;;
1715;SDS011;855;48.824;9.220;2023-04-25T09:06:59;13.53;;;4.70;;
1715;SDS011;855;48.824;9.220;2023-04-25T09:09:26;7.70;;;3.83;;
1715;SDS011;855;48.824;9.220;2023-04-25T09:11:53;7.57;;;3.80;;
1715;SDS011;855;48.824;9.220;2023-04-25T09:14:21;10.13;;;4.37;;
1715;SDS011;855;48.824;9.220;2023-04-25T09:16:57;11.63;;;3.80;;
1715;SDS011;855;48.824;9.220;2023-04-25T09:19:25;9.40;;;4.20;;
1715;SDS011;855;48.824;9.220;2023-04-25T09:21:53;8.67;;;4.33;;
1715;SDS011;855;48.824;9.220;2023-04-25T09:24:30;10.80;;;4.70;;
1715;SDS011;855;48.824;9.220;2023-04-25T09:26:57;11.17;;;5.03;;
1715;SDS011;855;48.824;9.220;2023-04-25T09:29:28;8.07;;;3.83;;
1715;SDS011;855;48.824;9.220;2023-04-25T09:32:10;8.87;;;4.53;;
1715;SDS011;855;48.824;9.220;2023-04-25T09:34:38;9.13;;;4.67;;
1715;SDS011;855;48.824;9.220;2023-04-25T09:37:07;11.77;;;6.33;;
1715;SDS011;855;48.824;9.220;2023-04-25T09:39:35;7.67;;;4.47;;
1715;SDS011;855;48.824;9.220;2023-04-25T09:42:03;12.40;;;4.90;;
1715;SDS011;855;48.824;9.220;2023-04-25T09:44:30;10.30;;;4.57;;
1715;SDS011;855;48.824;9.220;2023-04-25T09:46:57;7.43;;;4.20;;
1715;SDS011;855;48.824;9.220;2023-04-25T09:49:25;6.70;;;3.47;;
1715;SDS011;855;48.824;9.220;2023-04-25T09:51:55;4.77;;;2.90;;
1715;SDS011;855;48.824;9.220;2023-04-25T09:54:23;4.53;;;2.40;;
1715;SDS011;855;48.824;9.220;2023-04-25T09:56:52;5.20;;;2.90;;
1715;SDS011;855;48.824;9.220;2023-04-25T09:59:19;5.60;;;2.73;;
1715;SDS011;855;48.824;9.220;2023-04-25T10:01:48;5.53;;;2.93;;
1715;SDS011;855;48.824;9.220;2023-04-25T10:04:16;7.00;;;3.23;;
1715;SDS011;855;48.824;9.220;2023-04-25T10:06:49;5.30;;;2.93;;
1715;SDS011;855;48.824;9.220;2023-04-25T10:09:17;6.67;;;3.37;;
1715;SDS011;855;48.824;9.220;2023-04-25T10:11:46;6.50;;;2.73;;
1715;SDS011;855;48.824;9.220;2023-04-25T10:14:15;2.33;;;1.80;;
1715;SDS011;855;48.824;9.220;2023-04-25T10:16:42;7.10;;;3.80;;
1715;SDS011;855;48.824;9.220;2023-04-25T10:19:10;3.37;;;2.47;;
1715;SDS011;855;48.824;9.220;2023-04-25T10:21:37;5.03;;;3.20;;
1715;SDS011;855;48.824;9.220;2023-04-25T10:24:12;15.37;;;4.77;;
1715;SDS011;855;48.824;9.220;2023-04-25T10:26:39;8.23;;;3.10;;
1715;SDS011;855;48.824;9.220;2023-04-25T10:29:06;4.10;;;2.60;;
1715;SDS011;855;48.824;9.220;2023-04-25T10:31:44;8.10;;;3.70;;
1715;SDS011;855;48.824;9.220;2023-04-25T10:34:12;3.57;;;2.33;;
1715;SDS011;855;48.824;9.220;2023-04-25T10:36:39;4.37;;;2.40;;
1715;SDS011;855;48.824;9.220;2023-04-25T10:39:06;5.20;;;2.60;;
1715;SDS011;855;48.824;9.220;2023-04-25T10:41:45;5.10;;;2.77;;
1715;SDS011;855;48.824;9.220;2023-04-25T10:44:14;3.33;;;2.30;;
1715;SDS011;855;48.824;9.220;2023-04-25T10:46:42;5.90;;;3.20;;
1715;SDS011;855;48.824;9.220;2023-04-25T10:49:10;6.93;;;3.60;;
1715;SDS011;855;48.824;9.220;2023-04-25T10:51:58;9.13;;;4.43;;
1715;SDS011;855;48.824;9.220;2023-04-25T10:54:39;6.87;;;4.00;;
1715;SDS011;855;48.824;9.220;2023-04-25T10:57:07;5.30;;;2.80;;
1715;SDS011;855;48.824;9.220;2023-04-25T10:59:39;7.90;;;3.90;;
1715;SDS011;855;48.824;9.220;2023-04-25T11:02:12;4.90;;;2.60;;
1715;SDS011;855;48.824;9.220;2023-04-25T11:04:39;4.97;;;3.00;;
1715;SDS011;855;48.824;9.220;2023-04-25T11:07:09;3.57;;;2.73;;
1715;SDS011;855;48.824;9.220;2023-04-25T11:09:41;5.10;;;3.07;;
1715;SDS011;855;48.824;9.220;2023-04-25T11:12:08;5.43;;;3.13;;
1715;SDS011;855;48.824;9.220;2023-04-25T11:14:36;4.60;;;2.47;;
1715;SDS011;855;48.824;9.220;2023-04-25T11:17:03;3.50;;;2.37;;
1715;SDS011;855;48.824;9.220;2023-04-25T11:19:32;4.60;;;2.27;;
1715;SDS011;855;48.824;9.220;2023-04-25T11:21:59;3.77;;;2.73;;
1715;SDS011;855;48.824;9.220;2023-04-25T11:24:27;6.50;;;2.73;;
1715;SDS011;855;48.824;9.220;2023-04-25T11:26:53;7.30;;;2.63;;
1715;SDS011;855;48.824;9.220;2023-04-25T11:29:21;5.93;;;3.20;;
1715;SDS011;855;48.824;9.220;2023-04-25T11:31:48;4.93;;;3.13;;
1715;SDS011;855;48.824;9.220;2023-04-25T11:34:16;3.43;;;2.50;;
1715;SDS011;855;48.824;9.220;2023-04-25T11:36:45;5.77;;;3.10;;
1715;SDS011;855;48.824;9.220;2023-04-25T11:39:12;3.20;;;2.40;;
1715;SDS011;855;48.824;9.220;2023-04-25T11:41:40;6.07;;;2.80;;
1715;SDS011;855;48.824;9.220;2023-04-25T11:44:07;3.93;;;2.23;;
1715;SDS011;855;48.824;9.220;2023-04-25T11:46:34;4.90;;;2.23;;
1715;SDS011;855;48.824;9.220;2023-04-25T11:49:02;3.00;;;1.97;;
1715;SDS011;855;48.824;9.220;2023-04-25T11:51:30;2.57;;;2.20;;
1715;SDS011;855;48.824;9.220;2023-04-25T11:54:05;2.70;;;2.00;;
1715;SDS011;855;48.824;9.220;2023-04-25T11:56:31;6.33;;;2.40;;
1715;SDS011;855;48.824;9.220;2023-04-25T11:58:59;3.10;;;2.30;;
1715;SDS011;855;48.824;9.220;2023-04-25T12:01:27;7.60;;;2.97;;
1715;SDS011;855;48.824;9.220;2023-04-25T12:03:55;14.37;;;4.33;;
1715;SDS011;855;48.824;9.220;2023-04-25T12:06:25;3.87;;;2.87;;
1715;SDS011;855;48.824;9.220;2023-04-25T12:09:00;3.40;;;2.57;;
1715;SDS011;855;48.824;9.220;2023-04-25T12:11:30;4.27;;;3.17;;
1715;SDS011;855;48.824;9.220;2023-04-25T12:14:01;6.90;;;3.73;;
1715;SDS011;855;48.824;9.220;2023-04-25T12:16:29;5.53;;;2.83;;
1715;SDS011;855;48.824;9.220;2023-04-25T12:19:05;5.67;;;3.20;;
1715;SDS011;855;48.824;9.220;2023-04-25T12:21:32;8.70;;;3.37;;
1715;SDS011;855;48.824;9.220;2023-04-25T12:24:08;8.87;;;3.50;;
1715;SDS011;855;48.824;9.220;2023-04-25T12:26:47;5.07;;;3.00;;
1715;SDS011;855;48.824;9.220;2023-04-25T12:29:17;6.87;;;3.97;;
1715;SDS011;855;48.824;9.220;2023-04-25T12:31:49;5.00;;;4.00;;
1715;SDS011;855;48.824;9.220;2023-04-25T12:34:17;7.70;;;3.60;;
1715;SDS011;855;48.824;9.220;2023-04-25T12:36:44;6.63;;;3.30;;
1715;SDS011;855;48.824;9.220;2023-04-25T12:39:14;8.93;;;3.70;;
1715;SDS011;855;48.824;9.220;2023-04-25T12:41:42;7.60;;;4.60;;
1715;SDS011;855;48.824;9.220;2023-04-25T12:44:10;10.33;;;4.77;;
1715;SDS011;855;48.824;9.220;2023-04-25T12:46:37;6.60;;;3.60;;
1715;SDS011;855;48.824;9.220;2023-04-25T12:49:05;7.40;;;4.07;;
1715;SDS011;855;48.824;9.220;2023-04-25T12:51:33;5.53;;;3.60;;
1715;SDS011;855;48.824;9.220;2023-04-25T12:54:00;6.90;;;3.83;;
1715;SDS011;855;48.824;9.220;2023-04-25T12:56:28;9.37;;;3.53;;
1715;SDS011;855;48.824;9.220;2023-04-25T12:58:55;7.73;;;4.13;;
1715;SDS011;855;48.824;9.220;2023-04-25T13:01:23;9.97;;;4.53;;
1715;SDS011;855;48.824;9.220;2023-04-25T13:03:51;6.00;;;3.83;;
1715;SDS011;855;48.824;9.220;2023-04-25T13:06:18;8.90;;;4.60;;
1715;SDS011;855;48.824;9.220;2023-04-25T13:08:46;10.97;;;4.83;;
1715;SDS011;855;48.824;9.220;2023-04-25T13:11:13;10.30;;;5.53;;
1715;SDS011;855;48.824;9.220;2023-04-25T13:13:40;7.17;;;4.33;;
1715;SDS011;855;48.824;9.220;2023-04-25T13:16:07;14.20;;;5.40;;
1715;SDS011;855;48.824;9.220;2023-04-25T13:18:36;8.70;;;4.47;;
1715;SDS011;855;48.824;9.220;2023-04-25T13:21:02;7.47;;;5.03;;
1715;SDS011;855;48.824;9.220;2023-04-25T13:23:29;9.00;;;4.30;;
1715;SDS011;855;48.824;9.220;2023-04-25T13:25:56;6.27;;;4.13;;
1715;SDS011;855;48.824;9.220;2023-04-25T13:28:24;8.97;;;4.17;;
1715;SDS011;855;48.824;9.220;2023-04-25T13:30:51;9.63;;;4.60;;
1715;SDS011;855;48.824;9.220;2023-04-25T13:33:18;9.33;;;4.90;;
1715;SDS011;855;48.824;9.220;2023-04-25T13:35:46;8.70;;;4.20;;
1715;SDS011;855;48.824;9.220;2023-04-25T13:38:19;10.23;;;5.20;;
1715;SDS011;855;48.824;9.220;2023-04-25T13:40:47;15.10;;;5.30;;
1715;SDS011;855;48.824;9.220;2023-04-25T13:43:14;10.60;;;5.40;;
1715;SDS011;855;48.824;9.220;2023-04-25T13:45:41;15.43;;;6.43;;
1715;SDS011;855;48.824;9.220;2023-04-25T13:48:08;13.90;;;6.00;;
1715;SDS011;855;48.824;9.220;2023-04-25T13:50:35;12.10;;;7.00;;
1715;SDS011;855;48.824;9.220;2023-04-25T13:53:03;15.83;;;6.67;;
1715;SDS011;855;48.824;9.220;2023-04-25T13:55:30;12.13;;;6.87;;
1715;SDS011;855;48.824;9.220;2023-04-25T13:57:57;18.63;;;6.60;;
1715;SDS011;855;48.824;9.220;2023-04-25T14:00:23;18.75;;;7.78;;
1715;SDS011;855;48.824;9.220;2023-04-25T14:02:50;16.83;;;7.57;;
1715;SDS011;855;48.824;9.220;2023-04-25T14:05:18;19.93;;;8.80;;
1715;SDS011;855;48.824;9.220;2023-04-25T14:07:45;17.07;;;6.73;;
1715;SDS011;855;48.824;9.220;2023-04-25T14:10:13;13.10;;;6.47;;
1715;SDS011;855;48.824;9.220;2023-04-25T14:12:40;11.97;;;6.27;;
1715;SDS011;855;48.824;9.220;2023-04-25T14:15:07;9.90;;;6.27;;
1715;SDS011;855;48.824;9.220;2023-04-25T14:17:35;13.13;;;6.53;;
1715;SDS011;855;48.824;9.220;2023-04-25T14:20:02;11.30;;;5.53;;
1715;SDS011;855;48.824;9.220;2023-04-25T14:22:30;18.63;;;7.20;;
1715;SDS011;855;48.824;9.220;2023-04-25T14:24:57;11.50;;;5.33;;
1715;SDS011;855;48.824;9.220;2023-04-25T14:27:25;10.40;;;5.40;;
1715;SDS011;855;48.824;9.220;2023-04-25T14:29:52;10.40;;;5.37;;
1715;SDS011;855;48.824;9.220;2023-04-25T14:32:19;10.43;;;4.83;;
1715;SDS011;855;48.824;9.220;2023-04-25T14:34:46;11.20;;;5.70;;
1715;SDS011;855;48.824;9.220;2023-04-25T14:37:13;15.13;;;6.23;;
1715;SDS011;855;48.824;9.220;2023-04-25T14:39:41;15.53;;;5.17;;
1715;SDS011;855;48.824;9.220;2023-04-25T14:42:08;14.73;;;6.27;;
1715;SDS011;855;48.824;9.220;2023-04-25T14:44:37;7.83;;;4.17;;
1715;SDS011;855;48.824;9.220;2023-04-25T14:47:04;10.70;;;4.83;;
1715;SDS011;855;48.824;9.220;2023-04-25T14:49:31;5.80;;;4.53;;
1715;SDS011;855;48.824;9.220;2023-04-25T14:51:58;11.23;;;4.93;;
1715;SDS011;855;48.824;9.220;2023-04-25T14:54:26;12.23;;;4.17;;
1715;SDS011;855;48.824;9.220;2023-04-25T14:56:52;8.20;;;4.40;;
1715;SDS011;855;48.824;9.220;2023-04-25T14:59:19;12.43;;;5.07;;
1715;SDS011;855;48.824;9.220;2023-04-25T15:01:48;17.50;;;5.17;;
1715;SDS011;855;48.824;9.220;2023-04-25T15:04:15;14.50;;;6.43;;
1715;SDS011;855;48.824;9.220;2023-04-25T15:06:43;6.93;;;4.60;;
1715;SDS011;855;48.824;9.220;2023-04-25T15:09:10;10.50;;;5.23;;
1715;SDS011;855;48.824;9.220;2023-04-25T15:11:36;11.10;;;6.57;;
1715;SDS011;855;48.824;9.220;2023-04-25T15:14:03;6.77;;;3.83;;
1715;SDS011;855;48.824;9.220;2023-04-25T15:16:30;10.67;;;6.03;;
1715;SDS011;855;48.824;9.220;2023-04-25T15:18:58;12.70;;;5.77;;
1715;SDS011;855;48.824;9.220;2023-04-25T15:21:29;9.40;;;5.57;;
1715;SDS011;855;48.824;9.220;2023-04-25T15:23:56;10.80;;;4.20;;
1715;SDS011;855;48.824;9.220;2023-04-25T15:26:23;7.20;;;3.83;;
1715;SDS011;855;48.824;9.220;2023-04-25T15:28:50;5.77;;;3.10;;
1715;SDS011;855;48.824;9.220;2023-04-25T15:31:17;6.83;;;2.80;;